Parishville, New York
Current Conditions -  °F | °C
As of 5:53 PM on Tuesday 21 Oct 2014 (Local Time) from KMSS Reporting Station
Overcast Overcast  
Wind Chill: 39°   Ceiling: 1500
Heat Index: 45°   Visibility: 10mi
Dew Point: 38°   Wind: 14mph
Humidity: 76%   Direction: 50°NE
Pressure: 30.07"   Gusts: NA
Location:  44.63°N, 74.81°W
Report Text: KMSS 212153Z AUTO 05012KT 10SM OVC015 07/03 A3007 RMK AO2 SLP186 T00720033
Loading
Personal Weather Stations






























Interactive Weather Map
Tropical Storm Tracking
New forecast layout! Learn more

10-Day Weather Forecast

Advertisements
Track Severe Weather on mobile